Minnetonka, Minnesota
Current Conditions -  °F | °C
As of 3:53 AM on Friday 21 Nov 2014 (Local Time) from KFCM Reporting Station
Clear Clear  
Wind Chill: -7°   Ceiling: Unl
Heat Index:   Visibility: 10mi
Dew Point:   Wind: 6mph
Humidity: 84%   Direction: 140°SE
Pressure: 30.23"   Gusts: NA
Location:  44.94°N, 93.47°W
Report Text: KFCM 210953Z AUTO 14005KT 10SM CLR M16/M18 A3023 RMK AO2 SLP258 T11561178
Loading
Personal Weather Stations






























Interactive Weather Map New forecast layout! Learn more

10-Day Weather Forecast

Advertisements
Track Severe Weather on mobile